createdAt,value
2023-04-03T00:00:01.278Z,2.7
2023-04-03T00:01:09.931Z,2.8
2023-04-03T00:02:01.227Z,2.8
2023-04-03T00:03:01.188Z,2.8
2023-04-03T00:04:01.526Z,2.8
2023-04-03T00:05:04.307Z,2.8
2023-04-03T00:06:12.983Z,2.8
2023-04-03T00:07:01.915Z,2.7
2023-04-03T00:08:01.447Z,2.7
2023-04-03T00:09:00.589Z,2.6
2023-04-03T00:10:00.255Z,2.6
2023-04-03T00:11:14.868Z,2.6
2023-04-03T00:12:02.124Z,2.6
2023-04-03T00:13:01.895Z,2.6
2023-04-03T00:14:02.092Z,2.6
2023-04-03T00:15:01.210Z,2.6
2023-04-03T00:16:01.219Z,2.6
2023-04-03T00:17:01.902Z,2.5
2023-04-03T00:18:01.136Z,2.5
2023-04-03T00:19:01.119Z,2.5
2023-04-03T00:20:01.147Z,2.5
2023-04-03T00:21:01.040Z,2.5
2023-04-03T00:22:01.163Z,2.4
2023-04-03T00:23:01.063Z,2.4
2023-04-03T00:24:01.055Z,2.4
2023-04-03T00:25:01.099Z,2.4
2023-04-03T00:26:01.079Z,2.3
2023-04-03T00:27:01.467Z,2.3
2023-04-03T00:28:01.196Z,2.3
2023-04-03T00:29:01.078Z,2.3
2023-04-03T00:30:01.091Z,2.3
2023-04-03T00:31:01.135Z,2.4
2023-04-03T00:32:01.113Z,2.3
2023-04-03T00:33:01.127Z,2.4
2023-04-03T00:34:01.453Z,2.4
2023-04-03T00:35:01.504Z,2.3
2023-04-03T00:36:02.611Z,2.3
2023-04-03T00:37:01.135Z,2.3
2023-04-03T00:38:01.053Z,2.3
2023-04-03T00:39:01.050Z,2.2
2023-04-03T00:40:01.050Z,2.2
2023-04-03T00:41:01.215Z,2.3
2023-04-03T00:42:01.054Z,2.2
2023-04-03T00:43:01.080Z,2.2
2023-04-03T00:44:00.659Z,2.1
2023-04-03T00:45:00.267Z,2.1
2023-04-03T00:45:59.863Z,2.1
2023-04-03T00:46:59.596Z,2
2023-04-03T00:48:01.264Z,2
2023-04-03T00:49:02.538Z,2
2023-04-03T00:50:01.115Z,2
2023-04-03T00:51:01.128Z,2
2023-04-03T00:52:01.290Z,2
2023-04-03T00:53:01.223Z,2
2023-04-03T00:54:01.154Z,2
2023-04-03T00:55:01.773Z,2
2023-04-03T00:56:01.063Z,2
2023-04-03T00:57:01.174Z,2
2023-04-03T00:58:01.462Z,2
2023-04-03T00:59:01.889Z,2
2023-04-03T01:00:01.072Z,1.9
2023-04-03T01:01:01.071Z,1.9
2023-04-03T01:02:01.182Z,1.9
2023-04-03T01:03:01.163Z,1.9
2023-04-03T01:04:01.180Z,2
2023-04-03T01:05:02.010Z,1.9
2023-04-03T01:06:01.115Z,1.9
2023-04-03T01:07:01.512Z,1.9
2023-04-03T01:08:01.126Z,1.9
2023-04-03T01:09:01.769Z,1.9
2023-04-03T01:10:01.035Z,1.9
2023-04-03T01:11:01.033Z,1.9
2023-04-03T01:12:01.051Z,1.8
2023-04-03T01:13:01.124Z,1.8
2023-04-03T01:14:02.605Z,1.8
2023-04-03T01:15:01.955Z,1.9
2023-04-03T01:16:01.338Z,1.9
2023-04-03T01:17:01.077Z,1.9
2023-04-03T01:18:01.942Z,1.9
2023-04-03T01:19:01.422Z,1.9
2023-04-03T01:20:01.741Z,1.9
2023-04-03T01:21:01.140Z,1.9
2023-04-03T01:22:02.123Z,2
2023-04-03T01:23:01.140Z,1.9
2023-04-03T01:24:01.394Z,1.9
2023-04-03T01:25:01.255Z,1.8
2023-04-03T01:26:01.317Z,1.8
2023-04-03T01:27:02.276Z,1.8
2023-04-03T01:28:02.178Z,1.7
2023-04-03T01:29:02.526Z,1.7
2023-04-03T01:30:01.035Z,1.7
2023-04-03T01:31:01.128Z,1.7
2023-04-03T01:32:05.281Z,1.7
2023-04-03T01:33:01.133Z,1.7
2023-04-03T01:34:01.311Z,1.7
2023-04-03T01:35:01.483Z,1.7
2023-04-03T01:36:04.030Z,1.7
2023-04-03T01:37:08.007Z,1.7
2023-04-03T01:38:02.002Z,1.7
2023-04-03T01:39:01.123Z,1.7
2023-04-03T01:40:01.132Z,1.7
2023-04-03T01:41:01.141Z,1.6
2023-04-03T01:42:11.053Z,1.7
2023-04-03T01:43:01.537Z,1.7
2023-04-03T01:44:01.948Z,1.7
2023-04-03T01:45:01.228Z,1.7
2023-04-03T01:46:02.037Z,1.6
2023-04-03T01:47:14.314Z,1.7
2023-04-03T01:48:01.129Z,1.7
2023-04-03T01:49:01.872Z,1.7
2023-04-03T01:50:01.137Z,1.7
2023-04-03T01:51:01.224Z,1.6
2023-04-03T01:52:16.786Z,1.6
2023-04-03T01:53:03.950Z,1.6
2023-04-03T01:54:01.107Z,1.7
2023-04-03T01:55:01.116Z,1.7
2023-04-03T01:56:01.175Z,1.7
2023-04-03T01:57:01.198Z,1.7
2023-04-03T01:58:01.296Z,1.6
2023-04-03T01:59:01.361Z,1.6
2023-04-03T02:00:03.588Z,1.6
2023-04-03T02:01:01.081Z,1.6
2023-04-03T02:02:01.026Z,1.6
2023-04-03T02:03:01.777Z,1.6
2023-04-03T02:04:01.127Z,1.6
2023-04-03T02:05:01.077Z,1.6
2023-04-03T02:06:01.105Z,1.6
2023-04-03T02:07:01.086Z,1.5
2023-04-03T02:08:01.117Z,1.5
2023-04-03T02:09:01.200Z,1.5
2023-04-03T02:10:01.488Z,1.5
2023-04-03T02:11:01.218Z,1.5
2023-04-03T02:12:01.126Z,1.5
2023-04-03T02:13:01.160Z,1.5
2023-04-03T02:14:01.774Z,1.5
2023-04-03T02:15:01.045Z,1.5
2023-04-03T02:16:01.157Z,1.4
2023-04-03T02:17:01.174Z,1.4
2023-04-03T02:18:01.522Z,1.3
2023-04-03T02:19:02.084Z,1.4
2023-04-03T02:20:01.232Z,1.4
2023-04-03T02:21:01.084Z,1.4
2023-04-03T02:22:01.079Z,1.4
2023-04-03T02:23:01.095Z,1.4
2023-04-03T02:24:00.767Z,1.4
2023-04-03T02:25:00.507Z,1.4
2023-04-03T02:26:00.254Z,1.4
2023-04-03T02:26:59.872Z,1.4
2023-04-03T02:28:01.931Z,1.4
2023-04-03T02:29:01.128Z,1.4
2023-04-03T02:30:01.527Z,1.5
2023-04-03T02:31:01.379Z,1.4
2023-04-03T02:32:01.708Z,1.3
2023-04-03T02:33:01.108Z,1.3
2023-04-03T02:34:01.051Z,1.3
2023-04-03T02:35:01.476Z,1.3
2023-04-03T02:36:01.083Z,1.3
2023-04-03T02:37:01.087Z,1.3
2023-04-03T02:38:01.818Z,1.3
2023-04-03T02:39:01.386Z,1.3
2023-04-03T02:40:02.100Z,1.3
2023-04-03T02:41:01.149Z,1.3
2023-04-03T02:42:01.021Z,1.3
2023-04-03T02:43:01.133Z,1.3
2023-04-03T02:44:01.119Z,1.2
2023-04-03T02:45:01.147Z,1.1
2023-04-03T02:46:01.161Z,1.1
2023-04-03T02:47:01.132Z,1.1
2023-04-03T02:48:01.887Z,1.1
2023-04-03T02:49:01.033Z,1
2023-04-03T02:50:01.199Z,1.1
2023-04-03T02:51:01.084Z,1.1
2023-04-03T02:52:01.148Z,1
2023-04-03T02:53:01.096Z,1
2023-04-03T02:54:01.088Z,1
2023-04-03T02:55:01.061Z,1
2023-04-03T02:56:01.103Z,1
2023-04-03T02:57:01.372Z,1
2023-04-03T02:58:02.203Z,1.1
2023-04-03T02:59:02.000Z,1
2023-04-03T03:00:01.121Z,1
2023-04-03T03:01:01.115Z,1
2023-04-03T03:02:01.184Z,1
2023-04-03T03:03:01.350Z,1
2023-04-03T03:04:01.455Z,1
2023-04-03T03:05:02.579Z,1
2023-04-03T03:06:02.636Z,1
2023-04-03T03:07:01.076Z,1
2023-04-03T03:08:01.077Z,1.1
2023-04-03T03:09:01.185Z,1
2023-04-03T03:10:01.082Z,1
2023-04-03T03:11:01.094Z,1
2023-04-03T03:12:01.115Z,1
2023-04-03T03:13:00.901Z,1
2023-04-03T03:14:01.564Z,0.9
2023-04-03T03:15:01.140Z,0.9
2023-04-03T03:16:01.194Z,0.9
2023-04-03T03:17:01.138Z,0.9
2023-04-03T03:18:03.386Z,0.9
2023-04-03T03:19:00.795Z,0.9
2023-04-03T03:20:00.438Z,0.9
2023-04-03T03:21:01.039Z,0.9
2023-04-03T03:22:01.073Z,0.9
2023-04-03T03:23:06.263Z,0.9
2023-04-03T03:24:01.064Z,0.9
2023-04-03T03:25:01.077Z,0.9
2023-04-03T03:26:01.054Z,0.8
2023-04-03T03:27:01.115Z,0.8
2023-04-03T03:28:09.086Z,0.8
2023-04-03T03:29:01.090Z,0.8
2023-04-03T03:30:01.101Z,0.8
2023-04-03T03:31:01.173Z,0.8
2023-04-03T03:32:01.223Z,0.7
2023-04-03T03:33:12.033Z,0.7
2023-04-03T03:34:03.696Z,0.7
2023-04-03T03:35:01.748Z,0.7
2023-04-03T03:36:01.297Z,0.7
2023-04-03T03:37:01.051Z,0.7
2023-04-03T03:38:14.778Z,0.8
2023-04-03T03:39:01.059Z,0.8
2023-04-03T03:40:01.409Z,0.8
2023-04-03T03:41:01.457Z,0.8
2023-04-03T03:42:02.272Z,0.8
2023-04-03T03:43:01.068Z,0.7
2023-04-03T03:44:01.081Z,0.7
2023-04-03T03:45:01.086Z,0.7
2023-04-03T03:46:01.185Z,0.7
2023-04-03T03:47:01.501Z,0.7
2023-04-03T03:48:01.198Z,0.7
2023-04-03T03:49:01.880Z,0.6
2023-04-03T03:50:01.136Z,0.6
2023-04-03T03:51:01.134Z,0.7
2023-04-03T03:52:01.059Z,0.6
2023-04-03T03:53:01.141Z,0.6
2023-04-03T03:54:01.048Z,0.6
2023-04-03T03:55:01.055Z,0.6
2023-04-03T03:56:01.171Z,0.6
2023-04-03T03:57:01.067Z,0.7
2023-04-03T03:58:01.081Z,0.7
2023-04-03T03:59:04.269Z,0.7
2023-04-03T04:00:16.429Z,0.6
2023-04-03T04:01:02.627Z,0.6
2023-04-03T04:02:01.518Z,0.6
2023-04-03T04:03:02.120Z,0.6
2023-04-03T04:04:01.162Z,0.6
2023-04-03T04:05:01.281Z,0.6
2023-04-03T04:06:00.681Z,0.6
2023-04-03T04:07:00.324Z,0.6
2023-04-03T04:07:59.852Z,0.6
2023-04-03T04:09:02.472Z,0.6
2023-04-03T04:10:02.485Z,0.6
2023-04-03T04:11:01.073Z,0.7
2023-04-03T04:12:01.071Z,0.6
2023-04-03T04:13:01.220Z,0.6
2023-04-03T04:14:01.024Z,0.6
2023-04-03T04:15:01.204Z,0.6
2023-04-03T04:16:01.072Z,0.6
2023-04-03T04:17:01.198Z,0.6
2023-04-03T04:18:01.098Z,0.6
2023-04-03T04:19:01.031Z,0.6
2023-04-03T04:20:01.128Z,0.6
2023-04-03T04:21:01.203Z,0.6
2023-04-03T04:22:01.227Z,0.6
2023-04-03T04:23:01.309Z,0.6
2023-04-03T04:24:01.958Z,0.5
2023-04-03T04:25:00.961Z,0.5
2023-04-03T04:26:01.146Z,0.5
2023-04-03T04:27:01.055Z,0.4
2023-04-03T04:28:01.058Z,0.4
2023-04-03T04:29:00.728Z,0.4
2023-04-03T04:30:00.415Z,0.4
2023-04-03T04:31:00.207Z,0.4
2023-04-03T04:31:59.850Z,0.4
2023-04-03T04:33:01.750Z,0.4
2023-04-03T04:34:01.843Z,0.4
2023-04-03T04:35:01.704Z,0.4
2023-04-03T04:36:01.714Z,0.4
2023-04-03T04:37:01.585Z,0.3
2023-04-03T04:38:01.313Z,0.4
2023-04-03T04:39:01.745Z,0.4
2023-04-03T04:40:02.239Z,0.4
2023-04-03T04:41:01.588Z,0.4
2023-04-03T04:42:01.474Z,0.4
2023-04-03T04:43:01.056Z,0.4
2023-04-03T04:44:01.352Z,0.4
2023-04-03T04:45:01.079Z,0.5
2023-04-03T04:46:01.404Z,0.5
2023-04-03T04:47:01.661Z,0.5
2023-04-03T04:48:01.715Z,0.5
2023-04-03T04:49:01.511Z,0.5
2023-04-03T04:50:01.210Z,0.5
2023-04-03T04:51:01.912Z,0.5
2023-04-03T04:52:01.308Z,0.5
2023-04-03T04:53:00.589Z,0.5
2023-04-03T04:54:00.307Z,0.5
2023-04-03T04:55:00.428Z,0.5
2023-04-03T04:56:00.114Z,0.5
2023-04-03T04:56:59.719Z,0.6
2023-04-03T04:58:01.439Z,0.6
2023-04-03T04:59:03.887Z,0.6
2023-04-03T05:00:01.070Z,0.6
2023-04-03T05:01:01.107Z,0.8
2023-04-03T05:02:01.108Z,1
2023-04-03T05:03:01.122Z,1.2
2023-04-03T05:04:05.087Z,1.5
2023-04-03T05:05:03.006Z,1.7
2023-04-03T05:06:01.364Z,1.9
2023-04-03T05:07:01.375Z,2.1
2023-04-03T05:08:01.398Z,2.3
2023-04-03T05:09:06.932Z,2.6
2023-04-03T05:10:01.139Z,2.8
2023-04-03T05:11:01.149Z,3
2023-04-03T05:12:01.136Z,3.2
2023-04-03T05:13:01.144Z,3.3
2023-04-03T05:14:08.774Z,3.4
2023-04-03T05:15:01.085Z,3.3
2023-04-03T05:16:01.260Z,3.3
2023-04-03T05:17:02.085Z,3.4
2023-04-03T05:18:01.222Z,3.5
2023-04-03T05:19:12.761Z,3.8
2023-04-03T05:20:01.901Z,4
2023-04-03T05:21:01.761Z,4.3
2023-04-03T05:22:01.773Z,4.5
2023-04-03T05:23:01.762Z,4.5
2023-04-03T05:24:14.686Z,4.5
2023-04-03T05:25:01.346Z,4.5
2023-04-03T05:26:01.951Z,4.5
2023-04-03T05:27:02.184Z,4.6
2023-04-03T05:28:01.223Z,4.8
2023-04-03T05:29:01.164Z,4.9
2023-04-03T05:30:01.180Z,5
2023-04-03T05:31:00.946Z,5
2023-04-03T05:32:01.114Z,5.1
2023-04-03T05:33:01.111Z,5.2
2023-04-03T05:34:00.552Z,5.2
2023-04-03T05:35:01.409Z,5.2
2023-04-03T05:36:01.442Z,5.5
2023-04-03T05:37:02.185Z,5.6
2023-04-03T05:38:02.031Z,5.6
2023-04-03T05:39:01.298Z,5.6
2023-04-03T05:40:01.135Z,5.8
2023-04-03T05:41:01.125Z,6
2023-04-03T05:42:01.122Z,6.2
2023-04-03T05:43:01.117Z,6.4
2023-04-03T05:44:01.124Z,6.5
2023-04-03T05:45:01.222Z,6.5
2023-04-03T05:46:01.601Z,6.4
2023-04-03T05:47:01.044Z,6.4
2023-04-03T05:48:02.399Z,6.5
2023-04-03T05:49:02.281Z,6.8
2023-04-03T05:50:01.111Z,7
2023-04-03T05:51:01.080Z,7.1
2023-04-03T05:52:01.025Z,7
2023-04-03T05:53:01.028Z,6.4
2023-04-03T05:54:00.782Z,5.7
2023-04-03T05:55:01.235Z,5.1
2023-04-03T05:56:01.107Z,4.5
2023-04-03T05:57:01.946Z,4.1
2023-04-03T05:58:01.449Z,3.8
2023-04-03T05:59:01.382Z,3.5
2023-04-03T06:00:01.218Z,3.1
2023-04-03T06:01:02.577Z,2.9
2023-04-03T06:02:01.593Z,2.6
2023-04-03T06:03:01.387Z,2.5
2023-04-03T06:04:01.452Z,2.4
2023-04-03T06:05:01.163Z,2.3
2023-04-03T06:06:01.853Z,2.3
2023-04-03T06:07:01.056Z,2.3
2023-04-03T06:08:01.876Z,2.3
2023-04-03T06:09:02.047Z,2.2
2023-04-03T06:10:01.472Z,2.1
2023-04-03T06:11:01.465Z,2.1
2023-04-03T06:12:01.118Z,2.1
2023-04-03T06:13:01.589Z,2.1
2023-04-03T06:14:00.713Z,2.1
2023-04-03T06:15:01.733Z,2.1
2023-04-03T06:16:01.115Z,2.2
2023-04-03T06:17:01.174Z,2.1
2023-04-03T06:18:01.208Z,2.1
2023-04-03T06:19:01.947Z,2.1
2023-04-03T06:20:02.487Z,2
2023-04-03T06:21:01.048Z,2
2023-04-03T06:22:01.056Z,2.1
2023-04-03T06:23:01.068Z,2.1
2023-04-03T06:24:01.067Z,2.1
2023-04-03T06:25:01.082Z,2.1
2023-04-03T06:26:01.160Z,2.1
2023-04-03T06:27:01.077Z,2.2
2023-04-03T06:28:01.113Z,2.2
2023-04-03T06:29:01.352Z,2.2
2023-04-03T06:30:01.114Z,2.2
2023-04-03T06:31:02.068Z,2.1
2023-04-03T06:32:02.708Z,2.1
2023-04-03T06:33:01.208Z,2.1
2023-04-03T06:34:00.659Z,2.1
2023-04-03T06:35:00.316Z,2.1
2023-04-03T06:36:00.093Z,2
2023-04-03T06:37:00.018Z,2
2023-04-03T06:37:59.901Z,2
2023-04-03T06:38:59.708Z,2
2023-04-03T06:40:01.545Z,2.1
2023-04-03T06:41:01.323Z,2.1
2023-04-03T06:42:02.741Z,2.1
2023-04-03T06:43:04.049Z,2.1
2023-04-03T06:44:01.400Z,2.1
2023-04-03T06:45:01.031Z,2.1
2023-04-03T06:46:01.160Z,2.1
2023-04-03T06:47:01.501Z,2.1
2023-04-03T06:48:01.186Z,2.1
2023-04-03T06:49:01.434Z,2.2
2023-04-03T06:50:04.308Z,2.3
2023-04-03T06:51:02.098Z,2.3
2023-04-03T06:52:02.544Z,2.3
2023-04-03T06:53:01.042Z,2.3
2023-04-03T06:54:00.857Z,2.4
2023-04-03T06:55:05.928Z,2.5
2023-04-03T06:56:01.542Z,2.5
2023-04-03T06:57:01.136Z,2.5
2023-04-03T06:58:01.077Z,2.5
2023-04-03T06:59:01.090Z,2.5
2023-04-03T07:00:09.449Z,2.5
2023-04-03T07:01:01.105Z,2.5
2023-04-03T07:02:01.418Z,2.5
2023-04-03T07:03:01.088Z,2.5
2023-04-03T07:04:01.147Z,2.6
2023-04-03T07:05:11.491Z,2.5
2023-04-03T07:06:01.122Z,2.6
2023-04-03T07:07:01.163Z,2.6
2023-04-03T07:08:01.032Z,2.6
2023-04-03T07:09:01.240Z,2.6
2023-04-03T07:10:15.225Z,2.6
2023-04-03T07:11:02.780Z,2.6
2023-04-03T07:12:01.293Z,2.6
2023-04-03T07:13:02.522Z,2.6
2023-04-03T07:14:00.888Z,2.6
2023-04-03T07:15:01.126Z,2.7
2023-04-03T07:16:01.138Z,2.7
2023-04-03T07:17:01.097Z,2.8
2023-04-03T07:18:00.808Z,2.8
2023-04-03T07:19:00.487Z,2.8
2023-04-03T07:20:00.508Z,2.8
2023-04-03T07:21:00.219Z,2.8
2023-04-03T07:21:59.877Z,2.9
2023-04-03T07:23:00.104Z,2.9
2023-04-03T07:24:00.647Z,3
2023-04-03T07:25:00.233Z,3
2023-04-03T07:25:59.904Z,3
2023-04-03T07:26:59.508Z,3
2023-04-03T07:28:04.153Z,3
2023-04-03T07:29:01.080Z,3
2023-04-03T07:30:01.242Z,3
2023-04-03T07:31:01.041Z,3
2023-04-03T07:32:01.168Z,3
2023-04-03T07:33:01.160Z,3
2023-04-03T07:34:00.896Z,3
2023-04-03T07:35:02.353Z,3
2023-04-03T07:36:01.602Z,3.1
2023-04-03T07:37:00.625Z,3.1
2023-04-03T07:38:00.294Z,3.1
2023-04-03T07:38:59.901Z,3.1
2023-04-03T07:39:59.496Z,3.1
2023-04-03T07:41:01.156Z,3
2023-04-03T07:42:01.160Z,3.1
2023-04-03T07:43:01.052Z,3.1
2023-04-03T07:44:01.086Z,3.1
2023-04-03T07:45:01.029Z,3.1
2023-04-03T07:46:01.535Z,3.2
2023-04-03T07:47:01.163Z,3.3
2023-04-03T07:48:02.864Z,3.3
2023-04-03T07:49:01.099Z,3.3
2023-04-03T07:50:01.104Z,3.3
2023-04-03T07:51:01.139Z,3.4
2023-04-03T07:52:01.118Z,3.4
2023-04-03T07:53:01.819Z,3.4
2023-04-03T07:54:00.989Z,3.5
2023-04-03T07:55:01.514Z,3.5
2023-04-03T07:56:01.156Z,3.5
2023-04-03T07:57:01.067Z,3.5
2023-04-03T07:58:01.048Z,3.5
2023-04-03T07:59:01.087Z,3.5
2023-04-03T08:00:01.070Z,3.5
2023-04-03T08:01:01.882Z,3.5
2023-04-03T08:02:05.355Z,3.6
2023-04-03T08:03:01.275Z,3.6
2023-04-03T08:04:01.379Z,3.6
2023-04-03T08:05:08.335Z,3.6
2023-04-03T08:06:02.744Z,3.6
2023-04-03T08:07:01.286Z,3.6
2023-04-03T08:08:02.534Z,3.6
2023-04-03T08:09:02.538Z,3.6
2023-04-03T08:10:01.052Z,3.6
2023-04-03T08:11:01.340Z,3.7
2023-04-03T08:12:01.344Z,3.8
2023-04-03T08:13:02.099Z,3.8
2023-04-03T08:14:01.848Z,3.7
2023-04-03T08:15:00.857Z,3.7
2023-04-03T08:16:00.434Z,3.7
2023-04-03T08:17:00.169Z,3.7
2023-04-03T08:17:59.992Z,3.8
2023-04-03T08:19:00.024Z,3.8
2023-04-03T08:19:59.647Z,3.8
2023-04-03T08:21:01.424Z,3.9
2023-04-03T08:22:04.142Z,3.9
2023-04-03T08:23:02.640Z,3.8
2023-04-03T08:24:01.117Z,3.8
2023-04-03T08:25:01.037Z,3.8
2023-04-03T08:26:01.039Z,3.8
2023-04-03T08:27:01.154Z,3.8
2023-04-03T08:28:01.136Z,3.8
2023-04-03T08:29:01.119Z,3.8
2023-04-03T08:30:03.891Z,3.8
2023-04-03T08:31:03.194Z,3.8
2023-04-03T08:32:02.029Z,3.7
2023-04-03T08:33:01.873Z,3.8
2023-04-03T08:34:01.092Z,3.8
2023-04-03T08:35:00.696Z,3.8
2023-04-03T08:36:05.273Z,3.9
2023-04-03T08:37:01.387Z,3.9
2023-04-03T08:38:01.469Z,4
2023-04-03T08:39:02.104Z,3.9
2023-04-03T08:40:02.797Z,3.9
2023-04-03T08:41:08.894Z,4
2023-04-03T08:42:01.123Z,3.9
2023-04-03T08:43:01.134Z,4
2023-04-03T08:44:01.145Z,4
2023-04-03T08:45:01.148Z,4
2023-04-03T08:46:11.265Z,4
2023-04-03T08:47:01.483Z,4
2023-04-03T08:48:00.978Z,3.9
2023-04-03T08:49:01.156Z,4
2023-04-03T08:50:10.817Z,4
2023-04-03T08:51:14.198Z,4
2023-04-03T08:52:01.753Z,3.9
2023-04-03T08:53:01.850Z,3.9
2023-04-03T08:54:02.527Z,3.8
2023-04-03T08:55:01.472Z,3.8
2023-04-03T08:56:17.131Z,3.8
2023-04-03T08:57:01.550Z,3.8
2023-04-03T08:58:01.114Z,3.8
2023-04-03T08:59:01.081Z,3.8
2023-04-03T09:00:01.489Z,3.8
2023-04-03T09:01:01.986Z,3.8
2023-04-03T09:02:00.847Z,3.8
2023-04-03T09:03:00.606Z,3.8
2023-04-03T09:04:00.387Z,3.8
2023-04-03T09:05:00.134Z,3.8
2023-04-03T09:05:59.829Z,3.8
2023-04-03T09:07:02.276Z,3.8
2023-04-03T09:08:01.874Z,3.8
2023-04-03T09:09:02.928Z,3.8
2023-04-03T09:10:02.321Z,3.8
2023-04-03T09:11:01.341Z,3.8
2023-04-03T09:12:02.630Z,3.8
2023-04-03T09:13:02.017Z,3.8
2023-04-03T09:14:01.230Z,3.8
2023-04-03T09:15:00.817Z,3.8
2023-04-03T09:16:00.470Z,3.7
2023-04-03T09:17:00.363Z,3.6
2023-04-03T09:18:00.330Z,3.6
2023-04-03T09:19:00.011Z,3.7
2023-04-03T09:19:59.556Z,3.8
2023-04-03T09:21:01.256Z,3.8
2023-04-03T09:22:01.857Z,3.8
2023-04-03T09:23:01.893Z,3.8
2023-04-03T09:24:01.038Z,3.8
2023-04-03T09:25:01.072Z,3.8
2023-04-03T09:26:01.237Z,3.8
2023-04-03T09:27:00.831Z,3.8
2023-04-03T09:28:01.482Z,3.8
2023-04-03T09:29:01.100Z,3.8
2023-04-03T09:30:01.256Z,3.8
2023-04-03T09:31:01.890Z,3.8
2023-04-03T09:32:01.669Z,3.8
2023-04-03T09:33:00.693Z,3.8
2023-04-03T09:34:00.436Z,3.8
2023-04-03T09:35:03.818Z,3.8
2023-04-03T09:36:01.065Z,3.8
2023-04-03T09:37:01.436Z,3.8
2023-04-03T09:38:01.280Z,3.8
2023-04-03T09:39:01.065Z,3.8
2023-04-03T09:40:01.087Z,3.8
2023-04-03T09:41:01.813Z,3.8
2023-04-03T09:42:01.985Z,3.8
2023-04-03T09:43:02.401Z,3.9
2023-04-03T09:44:00.674Z,4
2023-04-03T09:45:00.465Z,4
2023-04-03T09:46:00.495Z,4
2023-04-03T09:47:00.250Z,4
2023-04-03T09:47:59.927Z,4
2023-04-03T09:49:08.112Z,4
2023-04-03T09:50:01.047Z,4
2023-04-03T09:51:01.053Z,4
2023-04-03T09:52:01.040Z,4
2023-04-03T09:53:00.749Z,4.1
2023-04-03T09:54:00.539Z,4.1
2023-04-03T09:55:00.236Z,4.1
2023-04-03T09:56:00.056Z,4.1
2023-04-03T09:56:59.635Z,4.1
2023-04-03T09:58:01.755Z,4.1
2023-04-03T09:59:01.984Z,4.1
2023-04-03T10:00:01.355Z,4.2
2023-04-03T10:01:01.120Z,4.2
2023-04-03T10:02:01.110Z,4.2
2023-04-03T10:03:01.419Z,4.3
2023-04-03T10:04:01.268Z,4.3
2023-04-03T10:05:09.601Z,4.3
2023-04-03T10:06:03.168Z,4.3
2023-04-03T10:07:01.143Z,4.4
2023-04-03T10:08:03.789Z,4.5
2023-04-03T10:09:01.052Z,4.5
2023-04-03T10:10:01.198Z,4.5
2023-04-03T10:11:01.223Z,4.5
2023-04-03T10:12:02.145Z,4.5
2023-04-03T10:13:01.068Z,4.5
2023-04-03T10:14:01.053Z,4.5
2023-04-03T10:15:00.776Z,4.5
2023-04-03T10:16:00.374Z,4.5
2023-04-03T10:17:00.208Z,4.6
2023-04-03T10:18:02.783Z,4.6
2023-04-03T10:19:01.293Z,4.7
2023-04-03T10:20:01.497Z,4.7
2023-04-03T10:21:02.027Z,4.7
2023-04-03T10:22:02.698Z,4.8
2023-04-03T10:23:01.047Z,4.8
2023-04-03T10:24:01.061Z,4.8
2023-04-03T10:25:01.056Z,4.8
2023-04-03T10:26:01.058Z,4.7
2023-04-03T10:27:05.825Z,4.6
2023-04-03T10:28:01.433Z,4.6
2023-04-03T10:29:02.089Z,4.6
2023-04-03T10:30:02.303Z,4.7
2023-04-03T10:31:01.159Z,4.8
2023-04-03T10:32:08.459Z,4.8
2023-04-03T10:33:01.837Z,4.9
2023-04-03T10:34:02.563Z,4.9
2023-04-03T10:35:05.191Z,4.9
2023-04-03T10:36:01.825Z,4.9
2023-04-03T10:37:11.829Z,4.9
2023-04-03T10:38:01.851Z,4.9
2023-04-03T10:39:01.665Z,4.9
2023-04-03T10:40:03.309Z,4.9
2023-04-03T10:41:02.922Z,4.9
2023-04-03T10:42:17.194Z,4.9
2023-04-03T10:43:01.436Z,4.9
2023-04-03T10:44:01.103Z,5
2023-04-03T10:45:01.094Z,5
2023-04-03T10:46:01.128Z,5
2023-04-03T10:47:01.132Z,5
2023-04-03T10:48:01.181Z,5
2023-04-03T10:49:01.030Z,4.9
2023-04-03T10:50:01.452Z,4.9
2023-04-03T10:51:01.137Z,4.8
2023-04-03T10:52:01.143Z,4.8
2023-04-03T10:53:01.125Z,4.8
2023-04-03T10:54:01.126Z,4.8
2023-04-03T10:55:00.824Z,4.8
2023-04-03T10:56:01.127Z,4.8
2023-04-03T10:57:09.127Z,4.8
2023-04-03T10:58:03.127Z,4.9
2023-04-03T10:59:01.470Z,4.9
2023-04-03T11:00:01.065Z,4.8
2023-04-03T11:01:01.079Z,4.9
2023-04-03T11:02:04.111Z,4.8
2023-04-03T11:03:01.889Z,4.8
2023-04-03T11:04:01.913Z,4.8
2023-04-03T11:05:01.110Z,4.8
2023-04-03T11:06:02.057Z,4.8
2023-04-03T11:07:02.633Z,4.8
2023-04-03T11:08:01.299Z,4.9
2023-04-03T11:09:02.014Z,4.9
2023-04-03T11:10:01.134Z,4.9
2023-04-03T11:11:01.163Z,4.9
2023-04-03T11:12:01.146Z,4.9
2023-04-03T11:13:01.457Z,4.9
2023-04-03T11:14:01.062Z,4.8
2023-04-03T11:15:01.089Z,4.8
2023-04-03T11:16:01.206Z,4.8
2023-04-03T11:17:02.097Z,4.8
2023-04-03T11:18:01.160Z,4.8
2023-04-03T11:19:01.079Z,4.9
2023-04-03T11:20:01.102Z,4.9
2023-04-03T11:21:01.172Z,5
2023-04-03T11:22:01.180Z,5
2023-04-03T11:23:01.123Z,5
2023-04-03T11:24:01.124Z,4.9
2023-04-03T11:25:01.125Z,5
2023-04-03T11:26:01.197Z,5
2023-04-03T11:27:01.152Z,5
2023-04-03T11:28:01.031Z,5
2023-04-03T11:29:01.037Z,5
2023-04-03T11:30:01.076Z,5
2023-04-03T11:31:01.082Z,5
2023-04-03T11:32:01.466Z,5
2023-04-03T11:33:01.142Z,5
2023-04-03T11:34:01.080Z,4.9
2023-04-03T11:35:01.083Z,4.9
2023-04-03T11:36:00.869Z,5
2023-04-03T11:37:01.100Z,4.9
2023-04-03T11:38:01.064Z,4.9
2023-04-03T11:39:01.116Z,4.9
2023-04-03T11:40:01.525Z,4.9
2023-04-03T11:41:01.144Z,5
2023-04-03T11:42:12.484Z,5
2023-04-03T11:43:01.159Z,5
2023-04-03T11:44:01.037Z,4.9
2023-04-03T11:45:01.037Z,4.9
2023-04-03T11:46:01.103Z,4.9
2023-04-03T11:47:01.098Z,4.8
2023-04-03T11:48:09.946Z,4.8
2023-04-03T11:49:02.098Z,4.8
2023-04-03T11:50:01.884Z,4.9
2023-04-03T11:51:01.533Z,4.9
2023-04-03T11:52:01.113Z,5
2023-04-03T11:53:01.098Z,4.9
2023-04-03T11:54:01.110Z,5
2023-04-03T11:55:01.110Z,5
2023-04-03T11:56:00.809Z,5
2023-04-03T11:57:00.416Z,5
2023-04-03T11:58:01.433Z,5
2023-04-03T11:59:01.129Z,5
2023-04-03T12:00:01.450Z,5
2023-04-03T12:01:00.902Z,5
2023-04-03T12:02:00.675Z,5
2023-04-03T12:03:04.372Z,5.1
2023-04-03T12:04:01.520Z,5.1
2023-04-03T12:05:01.091Z,5.1
2023-04-03T12:06:01.471Z,5.1
2023-04-03T12:07:01.464Z,5.2
2023-04-03T12:08:07.804Z,5.3
2023-04-03T12:09:01.081Z,5.3
2023-04-03T12:10:01.092Z,5.3
2023-04-03T12:11:01.150Z,5.3
2023-04-03T12:12:01.111Z,5.4
2023-04-03T12:13:09.958Z,5.3
2023-04-03T12:14:01.119Z,5.3
2023-04-03T12:15:01.144Z,5.2
2023-04-03T12:16:00.829Z,5.1
2023-04-03T12:17:01.674Z,5.1
2023-04-03T12:18:12.196Z,5.1
2023-04-03T12:19:01.560Z,5.1
2023-04-03T12:20:02.106Z,5.1
2023-04-03T12:21:01.893Z,5.1
2023-04-03T12:22:01.364Z,5.2
2023-04-03T12:23:13.897Z,5.1
2023-04-03T12:24:02.553Z,5.1
2023-04-03T12:25:01.019Z,5.1
2023-04-03T12:26:01.094Z,5.1
2023-04-03T12:27:01.101Z,5.1
2023-04-03T12:28:16.349Z,5.2
2023-04-03T12:29:01.217Z,5.3
2023-04-03T12:30:01.929Z,5.2
2023-04-03T12:31:01.968Z,5.2
2023-04-03T12:32:01.048Z,5.1
2023-04-03T12:33:11.808Z,5.1
2023-04-03T12:34:01.303Z,5.1
2023-04-03T12:35:01.049Z,5.1
2023-04-03T12:36:01.947Z,5.2
2023-04-03T12:37:01.241Z,5.2
2023-04-03T12:38:01.254Z,5.1
2023-04-03T12:39:01.088Z,5.1
2023-04-03T12:40:01.093Z,5.2
2023-04-03T12:41:01.123Z,5.3
2023-04-03T12:42:01.111Z,5.4
2023-04-03T12:43:02.962Z,5.4
2023-04-03T12:44:01.047Z,5.5
2023-04-03T12:45:01.147Z,5.5
2023-04-03T12:46:01.480Z,5.5
2023-04-03T12:47:01.988Z,5.5
2023-04-03T12:48:01.165Z,5.4
2023-04-03T12:49:01.144Z,5.4
2023-04-03T12:50:01.158Z,5.4
2023-04-03T12:51:02.090Z,5.4
2023-04-03T12:52:01.743Z,5.4
2023-04-03T12:53:01.032Z,5.4
2023-04-03T12:54:01.419Z,5.3
2023-04-03T12:55:01.027Z,5.4
2023-04-03T12:56:01.297Z,5.3
2023-04-03T12:57:01.134Z,5.3
2023-04-03T12:58:01.102Z,5.3
2023-04-03T12:59:01.109Z,5.2
2023-04-03T13:00:01.435Z,5.2
2023-04-03T13:01:01.523Z,5.2
2023-04-03T13:02:01.152Z,5.1
2023-04-03T13:03:01.241Z,5.1
2023-04-03T13:04:01.396Z,5.2
2023-04-03T13:05:02.085Z,5.3
2023-04-03T13:06:01.043Z,5.3
2023-04-03T13:07:01.041Z,5.3
2023-04-03T13:08:01.180Z,5.3
2023-04-03T13:09:01.434Z,5.3
2023-04-03T13:10:01.082Z,5.3
2023-04-03T13:11:01.228Z,5.2
2023-04-03T13:12:01.078Z,5.1
2023-04-03T13:13:01.078Z,5.1
2023-04-03T13:14:01.091Z,5.2
2023-04-03T13:15:01.111Z,5.2
2023-04-03T13:16:00.945Z,5.2
2023-04-03T13:17:01.296Z,5.1
2023-04-03T13:18:01.532Z,5
2023-04-03T13:19:01.937Z,5
2023-04-03T13:20:01.195Z,5
2023-04-03T13:21:01.047Z,4.9
2023-04-03T13:22:01.146Z,4.9
2023-04-03T13:23:01.076Z,4.9
2023-04-03T13:24:14.017Z,4.9
2023-04-03T13:25:02.850Z,4.9
2023-04-03T13:26:01.483Z,4.9
2023-04-03T13:27:01.211Z,4.9
2023-04-03T13:28:13.208Z,4.8
2023-04-03T13:29:01.084Z,4.8
2023-04-03T13:30:01.095Z,4.8
2023-04-03T13:31:01.116Z,4.8
2023-04-03T13:32:01.288Z,4.9
2023-04-03T13:33:02.583Z,4.9
2023-04-03T13:34:01.426Z,4.9
2023-04-03T13:35:15.512Z,5
2023-04-03T13:36:01.750Z,5
2023-04-03T13:37:01.453Z,5
2023-04-03T13:38:02.192Z,5
2023-04-03T13:39:01.056Z,5.1
2023-04-03T13:40:01.084Z,5.1
2023-04-03T13:41:01.065Z,5.1
2023-04-03T13:42:01.140Z,5.1
2023-04-03T13:43:01.260Z,5.2
2023-04-03T13:44:10.516Z,5.2
2023-04-03T13:45:01.131Z,5.1
2023-04-03T13:46:01.528Z,5.1
2023-04-03T13:47:01.232Z,5.1
2023-04-03T13:48:03.460Z,5.1
2023-04-03T13:49:03.710Z,5.1
2023-04-03T13:50:01.128Z,5.1
2023-04-03T13:51:01.114Z,5.1
2023-04-03T13:52:07.342Z,5.1
2023-04-03T13:53:01.165Z,5.1
2023-04-03T13:54:06.190Z,5.1